sensor_id;sensor_type;location;lat;lon;timestamp;pressure;altitude;pressure_sealevel;temperature;humidity
50434;BME280;36361;38.954;-9.002;2024-02-23T08:06:09;100956.69;;;10.94;100.00
50434;BME280;36361;38.954;-9.002;2024-02-23T08:12:31;100961.50;;;11.77;100.00
50434;BME280;36361;38.954;-9.002;2024-02-23T08:13:36;100956.66;;;11.79;100.00
50434;BME280;36361;38.954;-9.002;2024-02-23T08:14:39;100963.63;;;11.81;100.00
50434;BME280;36361;38.954;-9.002;2024-02-23T08:15:40;100958.78;;;11.90;100.00
50434;BME280;36361;38.954;-9.002;2024-02-23T08:21:19;100976.47;;;12.75;100.00
50434;BME280;36361;38.954;-9.002;2024-02-23T08:22:34;100984.44;;;12.77;100.00
50434;BME280;36361;38.954;-9.002;2024-02-23T08:23:45;100978.94;;;12.84;100.00
50434;BME280;36361;38.954;-9.002;2024-02-23T08:27:29;100971.28;;;13.17;100.00
50434;BME280;36361;38.954;-9.002;2024-02-23T08:28:39;100987.94;;;13.34;100.00
50434;BME280;36361;38.954;-9.002;2024-02-23T08:29:40;100989.91;;;13.27;100.00
50434;BME280;36361;38.954;-9.002;2024-02-23T08:31:15;100994.88;;;13.36;100.00
50434;BME280;36361;38.954;-9.002;2024-02-23T08:32:30;100987.44;;;13.19;100.00
50434;BME280;36361;38.954;-9.002;2024-02-23T08:33:31;100982.03;;;13.12;100.00
50434;BME280;36361;38.954;-9.002;2024-02-23T08:38:32;101008.91;;;12.65;100.00
50434;BME280;36361;38.954;-9.002;2024-02-23T08:39:33;101013.94;;;12.62;100.00
50434;BME280;36361;38.954;-9.002;2024-02-23T08:54:55;100999.34;;;12.49;100.00
50434;BME280;36361;38.954;-9.002;2024-02-23T08:56:21;101002.25;;;12.79;100.00
50434;BME280;36361;38.954;-9.002;2024-02-23T09:00:28;100998.25;;;13.32;100.00
50434;BME280;36361;38.954;-9.002;2024-02-23T09:05:58;101009.44;;;14.04;100.00
50434;BME280;36361;38.954;-9.002;2024-02-23T09:06:59;101006.88;;;13.90;100.00
50434;BME280;36361;38.954;-9.002;2024-02-23T09:10:44;101006.47;;;14.54;100.00
50434;BME280;36361;38.954;-9.002;2024-02-23T09:11:44;101001.88;;;14.66;100.00
50434;BME280;36361;38.954;-9.002;2024-02-23T09:12:48;100997.56;;;14.70;100.00
50434;BME280;36361;38.954;-9.002;2024-02-23T09:13:51;101000.41;;;14.33;100.00
50434;BME280;36361;38.954;-9.002;2024-02-23T09:14:52;101006.81;;;14.45;100.00
50434;BME280;36361;38.954;-9.002;2024-02-23T09:15:53;101001.38;;;14.69;100.00
50434;BME280;36361;38.954;-9.002;2024-02-23T09:16:54;101007.03;;;14.97;100.00
50434;BME280;36361;38.954;-9.002;2024-02-23T09:17:55;101002.88;;;14.95;100.00
50434;BME280;36361;38.954;-9.002;2024-02-23T09:18:56;101008.44;;;14.88;100.00
50434;BME280;36361;38.954;-9.002;2024-02-23T09:19:57;101006.81;;;15.11;100.00
50434;BME280;36361;38.954;-9.002;2024-02-23T09:20:59;101013.28;;;15.28;100.00
50434;BME280;36361;38.954;-9.002;2024-02-23T09:22:00;101017.06;;;15.03;100.00
50434;BME280;36361;38.954;-9.002;2024-02-23T09:23:02;101011.22;;;15.35;100.00
50434;BME280;36361;38.954;-9.002;2024-02-23T09:24:04;101017.19;;;15.20;100.00
50434;BME280;36361;38.954;-9.002;2024-02-23T09:25:27;101011.59;;;15.15;100.00
50434;BME280;36361;38.954;-9.002;2024-02-23T09:31:13;101031.16;;;15.19;100.00
50434;BME280;36361;38.954;-9.002;2024-02-23T09:32:16;101028.50;;;15.00;100.00
50434;BME280;36361;38.954;-9.002;2024-02-23T09:33:32;101019.56;;;14.93;100.00
50434;BME280;36361;38.954;-9.002;2024-02-23T09:34:37;101022.13;;;14.65;100.00
50434;BME280;36361;38.954;-9.002;2024-02-23T09:35:38;101018.97;;;14.49;100.00
50434;BME280;36361;38.954;-9.002;2024-02-23T09:36:39;101016.81;;;14.93;100.00
50434;BME280;36361;38.954;-9.002;2024-02-23T09:37:43;101017.06;;;15.03;100.00
50434;BME280;36361;38.954;-9.002;2024-02-23T09:38:43;101013.34;;;14.86;100.00
50434;BME280;36361;38.954;-9.002;2024-02-23T09:39:49;101010.63;;;15.33;100.00
50434;BME280;36361;38.954;-9.002;2024-02-23T09:40:51;101010.25;;;14.94;100.00
50434;BME280;36361;38.954;-9.002;2024-02-23T09:41:54;101016.00;;;14.63;100.00
50434;BME280;36361;38.954;-9.002;2024-02-23T09:42:58;101014.06;;;14.82;100.00
50434;BME280;36361;38.954;-9.002;2024-02-23T09:44:01;101015.38;;;14.91;100.00
50434;BME280;36361;38.954;-9.002;2024-02-23T09:45:03;101022.50;;;14.80;100.00
50434;BME280;36361;38.954;-9.002;2024-02-23T09:46:06;101028.25;;;14.48;100.00
50434;BME280;36361;38.954;-9.002;2024-02-23T09:47:08;101023.78;;;14.66;100.00
50434;BME280;36361;38.954;-9.002;2024-02-23T09:48:10;101012.44;;;14.62;100.00
50434;BME280;36361;38.954;-9.002;2024-02-23T09:49:14;101019.56;;;14.33;100.00
50434;BME280;36361;38.954;-9.002;2024-02-23T09:50:17;101021.97;;;14.60;100.00
50434;BME280;36361;38.954;-9.002;2024-02-23T09:51:18;101021.56;;;14.86;100.00
50434;BME280;36361;38.954;-9.002;2024-02-23T09:52:21;101024.56;;;15.08;100.00
50434;BME280;36361;38.954;-9.002;2024-02-23T09:59:40;101019.84;;;16.14;100.00
50434;BME280;36361;38.954;-9.002;2024-02-23T10:00:42;101022.16;;;16.34;100.00
50434;BME280;36361;38.954;-9.002;2024-02-23T10:04:08;101023.94;;;16.68;100.00
50434;BME280;36361;38.954;-9.002;2024-02-23T10:05:16;101032.94;;;16.24;100.00
50434;BME280;36361;38.954;-9.002;2024-02-23T10:06:17;101032.00;;;16.18;100.00
50434;BME280;36361;38.954;-9.002;2024-02-23T10:07:18;101036.25;;;16.54;100.00
50434;BME280;36361;38.954;-9.002;2024-02-23T10:18:11;101057.75;;;15.30;100.00
50434;BME280;36361;38.954;-9.002;2024-02-23T10:19:11;101050.88;;;14.97;100.00
50434;BME280;36361;38.954;-9.002;2024-02-23T10:20:12;101048.81;;;14.81;100.00
50434;BME280;36361;38.954;-9.002;2024-02-23T10:21:13;101053.91;;;14.66;100.00
50434;BME280;36361;38.954;-9.002;2024-02-23T10:22:14;101052.75;;;14.25;100.00
50434;BME280;36361;38.954;-9.002;2024-02-23T10:23:15;101048.06;;;13.95;100.00
50434;BME280;36361;38.954;-9.002;2024-02-23T10:24:16;101053.03;;;14.35;100.00
50434;BME280;36361;38.954;-9.002;2024-02-23T10:25:17;101058.97;;;14.50;100.00
50434;BME280;36361;38.954;-9.002;2024-02-23T10:26:21;101038.66;;;14.70;100.00
50434;BME280;36361;38.954;-9.002;2024-02-23T10:27:23;101046.25;;;14.56;100.00
50434;BME280;36361;38.954;-9.002;2024-02-23T10:28:24;101044.63;;;14.67;100.00
50434;BME280;36361;38.954;-9.002;2024-02-23T10:29:26;101048.88;;;14.63;100.00
50434;BME280;36361;38.954;-9.002;2024-02-23T10:35:14;101035.34;;;15.68;100.00
50434;BME280;36361;38.954;-9.002;2024-02-23T10:36:41;101036.72;;;15.94;100.00
50434;BME280;36361;38.954;-9.002;2024-02-23T10:50:02;101037.91;;;17.84;100.00
50434;BME280;36361;38.954;-9.002;2024-02-23T10:51:08;101034.31;;;18.06;100.00
50434;BME280;36361;38.954;-9.002;2024-02-23T10:52:11;101036.63;;;18.14;98.68
50434;BME280;36361;38.954;-9.002;2024-02-23T10:53:15;101033.66;;;18.42;95.15
50434;BME280;36361;38.954;-9.002;2024-02-23T11:06:55;101036.88;;;17.90;99.23
50434;BME280;36361;38.954;-9.002;2024-02-23T11:07:59;101033.22;;;17.29;100.00
50434;BME280;36361;38.954;-9.002;2024-02-23T11:15:31;101049.84;;;18.12;94.04
50434;BME280;36361;38.954;-9.002;2024-02-23T11:21:19;101064.47;;;17.40;99.34
50434;BME280;36361;38.954;-9.002;2024-02-23T11:22:32;101069.47;;;16.64;100.00
50434;BME280;36361;38.954;-9.002;2024-02-23T11:42:29;101043.25;;;21.29;71.50
50434;BME280;36361;38.954;-9.002;2024-02-23T11:43:47;101047.38;;;21.11;72.27
50434;BME280;36361;38.954;-9.002;2024-02-23T11:47:09;101032.41;;;21.68;66.73
50434;BME280;36361;38.954;-9.002;2024-02-23T11:48:12;101037.13;;;21.12;66.67
50434;BME280;36361;38.954;-9.002;2024-02-23T11:51:16;101039.31;;;19.91;66.23
50434;BME280;36361;38.954;-9.002;2024-02-23T11:52:17;101031.31;;;20.72;66.88
50434;BME280;36361;38.954;-9.002;2024-02-23T11:53:18;101029.69;;;21.07;65.54
50434;BME280;36361;38.954;-9.002;2024-02-23T11:54:21;101023.59;;;21.51;64.39
50434;BME280;36361;38.954;-9.002;2024-02-23T11:55:22;101022.44;;;21.67;64.21
50434;BME280;36361;38.954;-9.002;2024-02-23T11:56:23;101027.97;;;21.72;62.04
50434;BME280;36361;38.954;-9.002;2024-02-23T11:57:24;101018.97;;;22.11;63.98
50434;BME280;36361;38.954;-9.002;2024-02-23T11:58:33;101024.25;;;22.02;65.27
50434;BME280;36361;38.954;-9.002;2024-02-23T12:00:11;101023.56;;;21.56;65.62
50434;BME280;36361;38.954;-9.002;2024-02-23T12:01:18;101033.31;;;22.33;64.75
50434;BME280;36361;38.954;-9.002;2024-02-23T12:02:27;101032.19;;;22.29;62.45
50434;BME280;36361;38.954;-9.002;2024-02-23T12:03:30;101029.59;;;21.89;59.95
50434;BME280;36361;38.954;-9.002;2024-02-23T12:04:32;101026.63;;;21.09;63.29
50434;BME280;36361;38.954;-9.002;2024-02-23T12:05:32;101026.63;;;21.19;61.55
50434;BME280;36361;38.954;-9.002;2024-02-23T12:06:33;101020.00;;;21.05;60.48
50434;BME280;36361;38.954;-9.002;2024-02-23T12:07:34;101025.81;;;20.98;61.18
50434;BME280;36361;38.954;-9.002;2024-02-23T12:08:37;101020.25;;;21.18;59.99
50434;BME280;36361;38.954;-9.002;2024-02-23T12:09:42;101024.69;;;21.45;59.48
50434;BME280;36361;38.954;-9.002;2024-02-23T12:11:03;101021.03;;;21.80;58.79
50434;BME280;36361;38.954;-9.002;2024-02-23T12:12:04;101026.16;;;22.66;57.78
50434;BME280;36361;38.954;-9.002;2024-02-23T12:13:05;101015.50;;;22.45;56.60
50434;BME280;36361;38.954;-9.002;2024-02-23T12:14:06;101014.19;;;22.32;56.78
50434;BME280;36361;38.954;-9.002;2024-02-23T12:15:09;101014.09;;;22.91;55.99
50434;BME280;36361;38.954;-9.002;2024-02-23T12:16:14;101012.19;;;22.87;56.64
50434;BME280;36361;38.954;-9.002;2024-02-23T12:17:15;101008.34;;;23.12;56.59
50434;BME280;36361;38.954;-9.002;2024-02-23T12:18:15;101014.09;;;23.49;55.51
50434;BME280;36361;38.954;-9.002;2024-02-23T12:19:38;101018.75;;;23.30;54.49
50434;BME280;36361;38.954;-9.002;2024-02-23T12:21:45;101014.81;;;23.36;54.35
50434;BME280;36361;38.954;-9.002;2024-02-23T12:27:39;101012.91;;;21.99;57.00
50434;BME280;36361;38.954;-9.002;2024-02-23T12:28:49;101009.06;;;21.95;57.48
50434;BME280;36361;38.954;-9.002;2024-02-23T12:29:53;101005.13;;;22.06;57.51
50434;BME280;36361;38.954;-9.002;2024-02-23T12:31:31;101009.72;;;21.56;57.61
50434;BME280;36361;38.954;-9.002;2024-02-23T12:32:39;101001.47;;;21.41;56.82
50434;BME280;36361;38.954;-9.002;2024-02-23T12:33:40;101005.84;;;21.67;56.68
50434;BME280;36361;38.954;-9.002;2024-02-23T12:34:43;100997.31;;;22.23;56.41
50434;BME280;36361;38.954;-9.002;2024-02-23T12:35:45;101002.34;;;22.06;57.02
50434;BME280;36361;38.954;-9.002;2024-02-23T12:36:46;101003.47;;;22.15;56.66
50434;BME280;36361;38.954;-9.002;2024-02-23T12:37:47;101005.47;;;21.89;56.38
50434;BME280;36361;38.954;-9.002;2024-02-23T12:39:22;101005.31;;;20.68;60.04
50434;BME280;36361;38.954;-9.002;2024-02-23T12:40:26;101003.09;;;20.70;60.19
50434;BME280;36361;38.954;-9.002;2024-02-23T12:41:39;100986.34;;;20.09;62.65
50434;BME280;36361;38.954;-9.002;2024-02-23T12:42:42;100992.88;;;19.83;62.69
50434;BME280;36361;38.954;-9.002;2024-02-23T12:43:47;100985.13;;;19.80;63.93
50434;BME280;36361;38.954;-9.002;2024-02-23T12:51:50;101023.38;;;16.83;89.41
50434;BME280;36361;38.954;-9.002;2024-02-23T12:52:52;101007.91;;;16.65;100.00
50434;BME280;36361;38.954;-9.002;2024-02-23T12:54:17;101005.91;;;16.61;100.00
50434;BME280;36361;38.954;-9.002;2024-02-23T12:55:32;101001.00;;;16.34;100.00
50434;BME280;36361;38.954;-9.002;2024-02-23T12:57:19;101003.81;;;16.23;100.00
50434;BME280;36361;38.954;-9.002;2024-02-23T12:58:20;101000.53;;;16.37;100.00
50434;BME280;36361;38.954;-9.002;2024-02-23T12:59:20;101002.53;;;16.70;100.00
50434;BME280;36361;38.954;-9.002;2024-02-23T13:00:21;100997.78;;;17.16;100.00
50434;BME280;36361;38.954;-9.002;2024-02-23T13:01:22;100998.72;;;17.77;95.93
50434;BME280;36361;38.954;-9.002;2024-02-23T13:02:29;100993.91;;;18.11;96.29
50434;BME280;36361;38.954;-9.002;2024-02-23T13:18:18;100969.09;;;22.06;61.69
50434;BME280;36361;38.954;-9.002;2024-02-23T13:19:19;100971.72;;;22.76;60.47
50434;BME280;36361;38.954;-9.002;2024-02-23T13:20:20;100960.97;;;22.69;59.81
50434;BME280;36361;38.954;-9.002;2024-02-23T13:21:21;100962.53;;;22.80;59.86
50434;BME280;36361;38.954;-9.002;2024-02-23T13:22:22;100957.09;;;22.65;58.24
50434;BME280;36361;38.954;-9.002;2024-02-23T13:23:50;100965.38;;;22.31;59.82
50434;BME280;36361;38.954;-9.002;2024-02-23T13:24:51;100964.38;;;21.01;62.30
50434;BME280;36361;38.954;-9.002;2024-02-23T13:25:52;100966.91;;;22.08;61.60
50434;BME280;36361;38.954;-9.002;2024-02-23T13:26:52;100967.25;;;21.81;61.37
50434;BME280;36361;38.954;-9.002;2024-02-23T13:27:53;100964.28;;;22.71;60.37
50434;BME280;36361;38.954;-9.002;2024-02-23T13:28:54;100960.91;;;22.74;59.10
50434;BME280;36361;38.954;-9.002;2024-02-23T13:29:55;100958.41;;;22.38;58.33
50434;BME280;36361;38.954;-9.002;2024-02-23T13:31:37;100961.59;;;21.37;60.53
50434;BME280;36361;38.954;-9.002;2024-02-23T13:32:41;100976.28;;;20.96;63.66
50434;BME280;36361;38.954;-9.002;2024-02-23T13:33:41;100980.28;;;20.17;69.88
50434;BME280;36361;38.954;-9.002;2024-02-23T13:34:42;100970.16;;;19.71;74.12
50434;BME280;36361;38.954;-9.002;2024-02-23T13:35:43;100977.03;;;19.58;74.96
50434;BME280;36361;38.954;-9.002;2024-02-23T13:36:44;100984.25;;;18.63;80.07
50434;BME280;36361;38.954;-9.002;2024-02-23T13:45:19;100949.06;;;17.12;100.00
50434;BME280;36361;38.954;-9.002;2024-02-23T13:46:47;100930.28;;;17.25;100.00
50434;BME280;36361;38.954;-9.002;2024-02-23T13:48:00;100936.53;;;17.81;93.05
50434;BME280;36361;38.954;-9.002;2024-02-23T13:49:05;100931.28;;;18.29;90.86
50434;BME280;36361;38.954;-9.002;2024-02-23T13:50:10;100919.00;;;18.68;87.95
50434;BME280;36361;38.954;-9.002;2024-02-23T13:51:11;100924.50;;;19.48;80.63
50434;BME280;36361;38.954;-9.002;2024-02-23T13:52:13;100921.72;;;20.15;75.66
50434;BME280;36361;38.954;-9.002;2024-02-23T13:56:18;100909.34;;;20.94;69.62
50434;BME280;36361;38.954;-9.002;2024-02-23T13:57:21;100920.91;;;21.22;61.38
50434;BME280;36361;38.954;-9.002;2024-02-23T14:00:42;100917.81;;;22.13;60.15
50434;BME280;36361;38.954;-9.002;2024-02-23T14:13:11;100889.66;;;21.26;55.80
50434;BME280;36361;38.954;-9.002;2024-02-23T14:14:11;100893.19;;;21.42;56.35
50434;BME280;36361;38.954;-9.002;2024-02-23T14:15:12;100891.94;;;21.79;56.32
50434;BME280;36361;38.954;-9.002;2024-02-23T14:16:13;100885.84;;;20.56;57.97
50434;BME280;36361;38.954;-9.002;2024-02-23T14:17:14;100873.53;;;21.44;56.93
50434;BME280;36361;38.954;-9.002;2024-02-23T14:18:15;100878.31;;;21.88;55.97
50434;BME280;36361;38.954;-9.002;2024-02-23T14:19:16;100895.03;;;21.67;56.81
50434;BME280;36361;38.954;-9.002;2024-02-23T14:20:16;100884.22;;;21.71;57.72
50434;BME280;36361;38.954;-9.002;2024-02-23T14:21:21;100884.84;;;22.46;55.80
50434;BME280;36361;38.954;-9.002;2024-02-23T14:22:26;100892.88;;;22.48;56.58
50434;BME280;36361;38.954;-9.002;2024-02-23T14:23:31;100887.41;;;21.93;56.46
50434;BME280;36361;38.954;-9.002;2024-02-23T14:24:40;100892.03;;;21.58;57.74
50434;BME280;36361;38.954;-9.002;2024-02-23T14:25:47;100875.59;;;20.47;59.31
50434;BME280;36361;38.954;-9.002;2024-02-23T14:27:00;100882.53;;;20.69;59.07
50434;BME280;36361;38.954;-9.002;2024-02-23T14:28:15;100876.44;;;20.78;59.19
50434;BME280;36361;38.954;-9.002;2024-02-23T14:29:23;100876.97;;;20.90;59.40
50434;BME280;36361;38.954;-9.002;2024-02-23T14:35:08;100857.06;;;20.27;63.46
50434;BME280;36361;38.954;-9.002;2024-02-23T14:36:10;100855.38;;;20.00;62.24
50434;BME280;36361;38.954;-9.002;2024-02-23T14:37:11;100859.22;;;19.99;63.99
50434;BME280;36361;38.954;-9.002;2024-02-23T14:38:21;100854.16;;;19.60;64.56
50434;BME280;36361;38.954;-9.002;2024-02-23T14:51:05;100838.94;;;17.23;100.00
50434;BME280;36361;38.954;-9.002;2024-02-23T14:52:10;100844.44;;;17.01;100.00
50434;BME280;36361;38.954;-9.002;2024-02-23T15:02:38;100832.31;;;16.47;100.00
50434;BME280;36361;38.954;-9.002;2024-02-23T15:03:40;100827.16;;;16.34;100.00
50434;BME280;36361;38.954;-9.002;2024-02-23T15:04:41;100833.66;;;16.28;100.00
50434;BME280;36361;38.954;-9.002;2024-02-23T15:05:41;100834.97;;;16.42;100.00
50434;BME280;36361;38.954;-9.002;2024-02-23T15:06:42;100841.03;;;16.44;100.00
50434;BME280;36361;38.954;-9.002;2024-02-23T15:19:49;100852.63;;;14.80;100.00
50434;BME280;36361;38.954;-9.002;2024-02-23T15:20:53;100842.41;;;14.64;100.00
50434;BME280;36361;38.954;-9.002;2024-02-23T15:21:55;100860.75;;;14.21;100.00
50434;BME280;36361;38.954;-9.002;2024-02-23T15:22:57;100867.84;;;14.52;100.00
50434;BME280;36361;38.954;-9.002;2024-02-23T15:33:21;100823.22;;;14.52;100.00
50434;BME280;36361;38.954;-9.002;2024-02-23T15:34:22;100828.56;;;14.82;100.00
50434;BME280;36361;38.954;-9.002;2024-02-23T15:38:03;100838.78;;;14.28;100.00
50434;BME280;36361;38.954;-9.002;2024-02-23T15:41:13;100847.56;;;14.30;100.00
50434;BME280;36361;38.954;-9.002;2024-02-23T15:43:52;100840.94;;;14.49;100.00
50434;BME280;36361;38.954;-9.002;2024-02-23T15:44:53;100841.78;;;14.50;100.00
50434;BME280;36361;38.954;-9.002;2024-02-23T15:46:41;100836.31;;;14.50;100.00
50434;BME280;36361;38.954;-9.002;2024-02-23T15:47:42;100831.06;;;14.72;100.00
50434;BME280;36361;38.954;-9.002;2024-02-23T15:48:43;100834.88;;;14.71;100.00
50434;BME280;36361;38.954;-9.002;2024-02-23T15:51:45;100849.38;;;14.36;100.00
50434;BME280;36361;38.954;-9.002;2024-02-23T15:52:46;100865.91;;;14.41;100.00
50434;BME280;36361;38.954;-9.002;2024-02-23T15:53:48;100846.44;;;14.49;100.00
50434;BME280;36361;38.954;-9.002;2024-02-23T15:54:49;100853.22;;;14.47;100.00
50434;BME280;36361;38.954;-9.002;2024-02-23T15:55:50;100852.38;;;14.46;100.00
50434;BME280;36361;38.954;-9.002;2024-02-23T15:56:51;100852.13;;;14.36;100.00
50434;BME280;36361;38.954;-9.002;2024-02-23T15:57:51;100838.63;;;14.35;100.00
50434;BME280;36361;38.954;-9.002;2024-02-23T15:58:55;100837.09;;;14.27;100.00
50434;BME280;36361;38.954;-9.002;2024-02-23T15:59:56;100822.09;;;14.18;100.00
50434;BME280;36361;38.954;-9.002;2024-02-23T16:00:57;100833.81;;;14.07;100.00
50434;BME280;36361;38.954;-9.002;2024-02-23T16:01:59;100828.75;;;14.22;100.00
50434;BME280;36361;38.954;-9.002;2024-02-23T16:03:03;100836.63;;;13.88;100.00
50434;BME280;36361;38.954;-9.002;2024-02-23T16:04:04;100822.88;;;13.95;100.00
50434;BME280;36361;38.954;-9.002;2024-02-23T16:05:05;100820.28;;;14.12;100.00
50434;BME280;36361;38.954;-9.002;2024-02-23T16:06:07;100813.38;;;14.09;100.00
50434;BME280;36361;38.954;-9.002;2024-02-23T16:07:12;100818.47;;;14.06;100.00
50434;BME280;36361;38.954;-9.002;2024-02-23T16:08:12;100812.91;;;14.01;100.00
50434;BME280;36361;38.954;-9.002;2024-02-23T16:09:13;100808.00;;;14.03;100.00
50434;BME280;36361;38.954;-9.002;2024-02-23T16:10:17;100807.66;;;13.99;100.00
50434;BME280;36361;38.954;-9.002;2024-02-23T16:11:18;100794.41;;;13.84;100.00
50434;BME280;36361;38.954;-9.002;2024-02-23T16:12:19;100812.97;;;13.82;100.00
50434;BME280;36361;38.954;-9.002;2024-02-23T16:13:20;100809.25;;;13.77;100.00
50434;BME280;36361;38.954;-9.002;2024-02-23T16:14:24;100808.22;;;13.89;100.00
50434;BME280;36361;38.954;-9.002;2024-02-23T16:15:30;100803.94;;;13.93;100.00
50434;BME280;36361;38.954;-9.002;2024-02-23T16:16:38;100797.66;;;14.16;100.00
50434;BME280;36361;38.954;-9.002;2024-02-23T16:17:41;100794.47;;;14.19;100.00
50434;BME280;36361;38.954;-9.002;2024-02-23T16:18:42;100799.47;;;14.11;100.00
50434;BME280;36361;38.954;-9.002;2024-02-23T16:19:43;100788.53;;;14.11;100.00
50434;BME280;36361;38.954;-9.002;2024-02-23T16:20:44;100801.94;;;14.01;100.00
50434;BME280;36361;38.954;-9.002;2024-02-23T16:21:45;100796.81;;;13.92;100.00
50434;BME280;36361;38.954;-9.002;2024-02-23T16:22:47;100807.28;;;13.95;100.00
50434;BME280;36361;38.954;-9.002;2024-02-23T16:23:48;100805.13;;;13.98;100.00
50434;BME280;36361;38.954;-9.002;2024-02-23T16:24:49;100803.19;;;13.75;100.00
50434;BME280;36361;38.954;-9.002;2024-02-23T16:25:50;100801.56;;;13.97;100.00
50434;BME280;36361;38.954;-9.002;2024-02-23T16:26:51;100794.41;;;13.84;100.00
50434;BME280;36361;38.954;-9.002;2024-02-23T16:27:52;100793.75;;;14.01;100.00
50434;BME280;36361;38.954;-9.002;2024-02-23T16:28:53;100807.19;;;14.02;100.00
50434;BME280;36361;38.954;-9.002;2024-02-23T16:29:54;100801.44;;;13.92;100.00
50434;BME280;36361;38.954;-9.002;2024-02-23T16:30:55;100795.91;;;14.22;100.00
50434;BME280;36361;38.954;-9.002;2024-02-23T16:31:59;100790.44;;;14.22;100.00
50434;BME280;36361;38.954;-9.002;2024-02-23T16:55:10;100815.41;;;13.42;100.00
50434;BME280;36361;38.954;-9.002;2024-02-23T16:56:13;100816.88;;;13.08;100.00
50434;BME280;36361;38.954;-9.002;2024-02-23T16:57:13;100821.13;;;13.04;100.00
50434;BME280;36361;38.954;-9.002;2024-02-23T16:58:14;100814.75;;;12.92;100.00
50434;BME280;36361;38.954;-9.002;2024-02-23T16:59:15;100818.56;;;13.27;100.00
50434;BME280;36361;38.954;-9.002;2024-02-23T17:00:16;100823.94;;;13.34;100.00
50434;BME280;36361;38.954;-9.002;2024-02-23T17:01:18;100822.34;;;13.45;100.00
50434;BME280;36361;38.954;-9.002;2024-02-23T17:02:18;100812.50;;;13.55;100.00
50434;BME280;36361;38.954;-9.002;2024-02-23T17:03:19;100810.94;;;13.48;100.00
50434;BME280;36361;38.954;-9.002;2024-02-23T17:04:20;100806.56;;;13.28;100.00
50434;BME280;36361;38.954;-9.002;2024-02-23T17:05:21;100817.09;;;13.25;100.00
50434;BME280;36361;38.954;-9.002;2024-02-23T17:06:22;100803.31;;;13.50;100.00
50434;BME280;36361;38.954;-9.002;2024-02-23T17:07:23;100809.72;;;13.74;100.00
50434;BME280;36361;38.954;-9.002;2024-02-23T17:08:24;100805.84;;;13.81;100.00
50434;BME280;36361;38.954;-9.002;2024-02-23T17:09:25;100806.78;;;13.87;100.00
50434;BME280;36361;38.954;-9.002;2024-02-23T17:10:37;100806.09;;;13.91;100.00
50434;BME280;36361;38.954;-9.002;2024-02-23T17:12:07;100806.03;;;13.80;100.00
50434;BME280;36361;38.954;-9.002;2024-02-23T17:13:08;100803.44;;;13.73;100.00
50434;BME280;36361;38.954;-9.002;2024-02-23T17:14:09;100809.72;;;13.44;100.00
50434;BME280;36361;38.954;-9.002;2024-02-23T17:15:09;100796.41;;;13.77;100.00
50434;BME280;36361;38.954;-9.002;2024-02-23T17:16:10;100789.88;;;13.78;100.00
50434;BME280;36361;38.954;-9.002;2024-02-23T17:17:13;100796.00;;;13.62;100.00
50434;BME280;36361;38.954;-9.002;2024-02-23T17:18:13;100797.22;;;13.36;100.00
50434;BME280;36361;38.954;-9.002;2024-02-23T17:19:14;100786.41;;;13.41;100.00
50434;BME280;36361;38.954;-9.002;2024-02-23T17:20:15;100785.72;;;13.46;100.00
50434;BME280;36361;38.954;-9.002;2024-02-23T17:21:16;100797.09;;;13.43;100.00
50434;BME280;36361;38.954;-9.002;2024-02-23T17:22:17;100786.19;;;13.43;100.00
50434;BME280;36361;38.954;-9.002;2024-02-23T17:23:18;100796.56;;;13.52;100.00
50434;BME280;36361;38.954;-9.002;2024-02-23T17:24:19;100787.31;;;13.53;100.00
50434;BME280;36361;38.954;-9.002;2024-02-23T17:25:20;100794.53;;;13.48;100.00
50434;BME280;36361;38.954;-9.002;2024-02-23T17:26:21;100803.25;;;13.26;100.00
50434;BME280;36361;38.954;-9.002;2024-02-23T17:27:28;100784.97;;;13.38;100.00
50434;BME280;36361;38.954;-9.002;2024-02-23T17:28:36;100797.66;;;13.33;100.00
50434;BME280;36361;38.954;-9.002;2024-02-23T17:29:38;100800.16;;;13.34;100.00
50434;BME280;36361;38.954;-9.002;2024-02-23T17:30:40;100801.22;;;13.15;100.00
50434;BME280;36361;38.954;-9.002;2024-02-23T17:31:41;100786.69;;;13.21;100.00
50434;BME280;36361;38.954;-9.002;2024-02-23T17:32:43;100800.09;;;13.04;100.00
50434;BME280;36361;38.954;-9.002;2024-02-23T17:33:43;100785.59;;;13.04;100.00
50434;BME280;36361;38.954;-9.002;2024-02-23T17:34:44;100802.59;;;13.24;100.00
50434;BME280;36361;38.954;-9.002;2024-02-23T17:35:46;100801.69;;;13.12;100.00
50434;BME280;36361;38.954;-9.002;2024-02-23T17:36:47;100807.50;;;13.16;100.00
50434;BME280;36361;38.954;-9.002;2024-02-23T17:37:48;100808.00;;;13.13;100.00
50434;BME280;36361;38.954;-9.002;2024-02-23T17:38:49;100809.75;;;13.25;100.00
50434;BME280;36361;38.954;-9.002;2024-02-23T17:39:51;100804.72;;;13.41;100.00
50434;BME280;36361;38.954;-9.002;2024-02-23T17:40:52;100818.25;;;13.35;100.00
50434;BME280;36361;38.954;-9.002;2024-02-23T17:41:53;100818.34;;;13.29;100.00
50434;BME280;36361;38.954;-9.002;2024-02-23T17:42:54;100821.81;;;13.18;100.00
50434;BME280;36361;38.954;-9.002;2024-02-23T17:43:55;100815.06;;;13.20;100.00
50434;BME280;36361;38.954;-9.002;2024-02-23T17:44:57;100845.13;;;13.38;100.00
50434;BME280;36361;38.954;-9.002;2024-02-23T17:45:58;100838.13;;;13.24;100.00
50434;BME280;36361;38.954;-9.002;2024-02-23T17:47:00;100831.91;;;13.17;100.00
50434;BME280;36361;38.954;-9.002;2024-02-23T17:48:02;100843.59;;;13.24;100.00
50434;BME280;36361;38.954;-9.002;2024-02-23T17:49:03;100847.97;;;13.07;100.00
50434;BME280;36361;38.954;-9.002;2024-02-23T17:50:04;100836.75;;;13.15;100.00
50434;BME280;36361;38.954;-9.002;2024-02-23T17:51:05;100839.66;;;13.02;100.00
50434;BME280;36361;38.954;-9.002;2024-02-23T17:52:06;100838.88;;;12.95;100.00